This is the latest recevied weather packets stored in our database for station/object KD7DVD-1. If no packets are shown the sender has not sent any weather packets the latest 10 day(s).
| Time | Temp. | Humidity | Pressure | Rain* | Wind** | Luminosity | Snow |
|---|---|---|---|---|---|---|---|
| 1777579216 | 19.44° C | 58% | 1018.4 hPa | 0 mm | - | - | - |
| 1777577416 | 18.33° C | 60% | 1018.7 hPa | 0 mm | - | - | - |
| 1777575616 | 18.33° C | 64% | 1019 hPa | 0 mm | - | - | - |
| 1777573816 | 17.22° C | 66% | 1019.6 hPa | 0 mm | - | - | - |
| 1777572016 | 16.11° C | 69% | 1019.8 hPa | 0 mm | - | - | - |
| 1777570215 | 15.56° C | 73% | 1020.3 hPa | 0 mm | - | - | - |
| 1777568415 | 15° C | 75% | 1020.3 hPa | 0 mm | - | - | - |
| 1777566617 | 13.89° C | 77% | 1020.7 hPa | 0 mm | - | - | - |
| 1777564817 | 12.78° C | 78% | 1020.8 hPa | 0 mm | - | - | - |
| 1777563017 | 13.33° C | 78% | 1021 hPa | 0 mm | - | - | - |
| 1777561217 | 12.22° C | 80% | 1021.3 hPa | 0 mm | - | - | - |
| 1777559417 | 12.22° C | 84% | 1021.3 hPa | 0 mm | - | - | - |
| 1777557617 | 10° C | 89% | 1021.1 hPa | 0 mm | - | - | - |
| 1777555817 | 8.33° C | 90% | 1021 hPa | 0 mm | - | - | - |
| 1777554018 | 8.89° C | 90% | 1021.1 hPa | 0 mm | - | - | - |
| 1777552217 | 8.89° C | 88% | 1021 hPa | 0 mm | - | - | - |
| 1777550417 | 8.89° C | 87% | 1021.1 hPa | 0 mm | - | - | - |
| 1777548616 | 9.44° C | 88% | 1021.1 hPa | 0 mm | - | - | - |
| 1777546816 | 10° C | 88% | 1021 hPa | 0 mm | - | - | - |
| 1777545016 | 10° C | 86% | 1020.9 hPa | 0 mm | - | - | - |
| 1777543216 | 10.56° C | 84% | 1021.1 hPa | 0 mm | - | - | - |
| 1777541416 | 10.56° C | 85% | 1021.2 hPa | 0 mm | - | - | - |
| 1777539616 | 11.11° C | 85% | 1021.5 hPa | 0 mm | - | - | - |
| 1777537816 | 11.67° C | 84% | 1021.6 hPa | 0 mm | - | - | - |
| 1777536016 | 11.11° C | 85% | 1021.8 hPa | 0 mm | - | - | - |
* Rain latest hour (hover to see other rain measurements)
** Current wind speed in m/s (hover to see current wind gust speed)